Machala, Ecuador

3:47 PM ECT on September 16, 2014 (GMT -0500)
Machala, El Oro, Ecuador | Change Station
CLOSE
Current Station
Personal Weather Station
Location: El Cambio, EL ORO
Elevation: 20 ft
Nearby Weather Stations

Elev 20 ft 3.30 °S, 79.90 °W | Updated 11 minutes ago

Overcast
Overcast
76.3 °F
Feels Like 77 °F
N
0.0
Wind Variable Wind from WNW
Gusts 0.0 mph

Today
High -- | Low -- °F
--% Chance of Precip.
Yesterday
High -- | Low -- °F
Precip. -- in
6:11 AM 6:17 PM
Last Quarter, 42% visible
Pressure 29.89 in
Visibility 6.2 miles
Clouds Overcast 1700 ft
Heat Index 77 °F
Dew Point 73 °F
Humidity 89%
Rainfall 0.00 in
Snow Depth Not available.
UV 0.5 out of 12
Pollen Not available.
Air Quality Not available.
Flu Activity Not available.
METAR SPME 161900Z 30005KT 9999 OVC017 25/21 Q1012 RMK BIRD HAZARD RWY 32/14 PP000

More Conditions Fewer Conditions

Pressure 29.89 in
Visibility 6.2 miles
Clouds Overcast 1700 ft
Heat Index 77 °F
Dew Point 73 °F
Humidity 89%
Rainfall 0.00 in
Snow Depth Not available.
UV 0.5 out of 12
Pollen Not available.
Air Quality Not available.
Flu Activity Not available.
METAR SPME 161900Z 30005KT 9999 OVC017 25/21 Q1012 RMK BIRD HAZARD RWY 32/14 PP000

More Conditions Fewer Conditions

10-Day Weather Forecast

Almanac

Astronomy

Sep. 16, 2014 Rise Set
Actual Time 6:11 AM ECT 6:17 PM ECT
Civil Twilight 5:51 AM ECT 6:38 PM ECT
Nautical Twilight 5:27 AM ECT 7:02 PM ECT
Astronomical Twilight 5:03 AM ECT 7:26 PM ECT
Moon 12:22 AM ECT 12:37 PM ECT
Length of Visible Light 12h 46m
Length of Day
12h 05m
Tomorrow will be 0m 11s longer.
Last Quarter, 42% of the Moon is Illuminated
Today
Last Quarter
Sep 24
New
Oct 1
First Quarter
Oct 8
Full
Oct 15
Last Quarter

Today's Extremes

Country Highs Country Lows

Community

WunderPhotos

Upload Photos

1,753,882 photos uploaded!

Nearby

Snow Depth

Not available.

Earthquake Activity

City Distance Mag. Time & Date
No recent earthquake activity has been reported nearby.
Minimum magnitude displayed is 2.5.

Coastal Water Temperatures

Place Temperature
No Stations Reporting

Nearby Weather Stations